createdAt,value
2017-09-06T00:00:02.668Z,1.97
2017-09-06T00:02:31.922Z,2.57
2017-09-06T00:05:01.166Z,2.03
2017-09-06T00:07:30.518Z,7.87
2017-09-06T00:09:59.956Z,2.00
2017-09-06T00:12:29.261Z,2.50
2017-09-06T00:14:58.545Z,2.60
2017-09-06T00:17:27.946Z,2.27
2017-09-06T00:19:57.351Z,2.37
2017-09-06T00:22:26.713Z,2.10
2017-09-06T00:24:55.949Z,2.33
2017-09-06T00:27:26.278Z,1.90
2017-09-06T00:29:55.513Z,3.07
2017-09-06T00:32:24.762Z,2.73
2017-09-06T00:34:54.189Z,2.63
2017-09-06T00:37:23.438Z,2.20
2017-09-06T00:39:52.702Z,2.40
2017-09-06T00:42:22.101Z,2.30
2017-09-06T00:44:51.397Z,3.10
2017-09-06T00:47:20.903Z,2.10
2017-09-06T00:49:50.207Z,3.00
2017-09-06T00:52:19.485Z,2.13
2017-09-06T00:54:48.722Z,2.30
2017-09-06T00:57:18.120Z,2.53
2017-09-06T00:59:47.438Z,2.13
2017-09-06T01:02:17.433Z,2.20
2017-09-06T01:04:46.676Z,2.53
2017-09-06T01:07:15.904Z,2.03
2017-09-06T01:09:45.210Z,1.47
2017-09-06T01:12:15.082Z,1.90
2017-09-06T01:14:44.339Z,1.80
2017-09-06T01:17:13.756Z,2.17
2017-09-06T01:19:43.003Z,2.00
2017-09-06T01:22:12.266Z,1.53
2017-09-06T01:24:41.557Z,2.47
2017-09-06T01:27:10.805Z,2.23
2017-09-06T01:29:40.085Z,2.57
2017-09-06T01:32:09.337Z,2.50
2017-09-06T01:34:38.577Z,2.27
2017-09-06T01:37:07.907Z,2.17
2017-09-06T01:39:37.142Z,2.30
2017-09-06T01:42:06.558Z,2.27
2017-09-06T01:44:35.802Z,2.50
2017-09-06T01:47:05.097Z,2.23
2017-09-06T01:49:34.353Z,1.57
2017-09-06T01:52:04.366Z,2.30
2017-09-06T01:54:34.196Z,1.77
2017-09-06T01:57:03.436Z,2.40
2017-09-06T01:59:32.700Z,3.30
2017-09-06T02:02:01.966Z,1.93
2017-09-06T02:04:31.205Z,2.33
2017-09-06T02:07:00.446Z,2.80
2017-09-06T02:09:29.709Z,2.23
2017-09-06T02:11:59.025Z,2.10
2017-09-06T02:14:28.706Z,2.50
2017-09-06T02:16:57.966Z,2.57
2017-09-06T02:19:27.304Z,2.23
2017-09-06T02:21:56.545Z,2.53
2017-09-06T02:24:25.829Z,2.73
2017-09-06T02:26:55.286Z,2.03
2017-09-06T02:29:24.744Z,2.23
2017-09-06T02:31:54.074Z,2.00
2017-09-06T02:34:23.325Z,2.00
2017-09-06T02:36:52.569Z,2.70
2017-09-06T02:39:21.838Z,1.93
2017-09-06T02:41:51.079Z,1.93
2017-09-06T02:44:20.337Z,1.93
2017-09-06T02:46:50.377Z,2.63
2017-09-06T02:49:19.633Z,1.70
2017-09-06T02:51:48.876Z,2.17
2017-09-06T02:54:18.125Z,2.67
2017-09-06T02:56:47.374Z,2.20
2017-09-06T02:59:16.659Z,3.13
2017-09-06T03:01:45.938Z,2.37
2017-09-06T03:04:15.192Z,1.63
2017-09-06T03:06:44.462Z,3.50
2017-09-06T03:09:14.122Z,1.93
2017-09-06T03:11:44.111Z,2.30
2017-09-06T03:14:14.112Z,1.83
2017-09-06T03:16:43.505Z,2.13
2017-09-06T03:19:12.747Z,1.67
2017-09-06T03:21:42.714Z,1.97
2017-09-06T03:24:12.169Z,1.83
2017-09-06T03:26:41.541Z,1.23
2017-09-06T03:29:10.781Z,1.60
2017-09-06T03:31:40.041Z,1.27
2017-09-06T03:34:09.434Z,2.27
2017-09-06T03:36:38.681Z,1.40
2017-09-06T03:39:07.946Z,1.67
2017-09-06T03:41:37.192Z,1.93
2017-09-06T03:44:06.459Z,1.60
2017-09-06T03:46:36.157Z,1.87
2017-09-06T03:49:05.413Z,1.60
2017-09-06T03:51:34.642Z,1.80
2017-09-06T03:54:04.701Z,1.97
2017-09-06T03:56:33.960Z,1.70
2017-09-06T03:59:03.202Z,1.60
2017-09-06T04:01:32.447Z,1.53
2017-09-06T04:04:03.002Z,1.53
2017-09-06T04:06:32.237Z,1.33
2017-09-06T04:09:01.494Z,1.40
2017-09-06T04:11:31.007Z,1.50
2017-09-06T04:14:00.520Z,1.67
2017-09-06T04:16:30.018Z,1.60
2017-09-06T04:18:59.331Z,1.50
2017-09-06T04:21:28.626Z,1.73
2017-09-06T04:23:57.880Z,1.50
2017-09-06T04:26:27.222Z,1.90
2017-09-06T04:28:56.469Z,1.47
2017-09-06T04:31:25.802Z,1.80
2017-09-06T04:33:55.059Z,1.43
2017-09-06T04:36:24.306Z,1.90
2017-09-06T04:38:53.565Z,1.60
2017-09-06T04:41:22.801Z,1.30
2017-09-06T04:43:52.040Z,1.83
2017-09-06T04:46:21.318Z,1.50
2017-09-06T04:48:50.704Z,1.67
2017-09-06T04:51:20.084Z,1.70
2017-09-06T04:53:49.320Z,1.70
2017-09-06T04:56:18.678Z,1.60
2017-09-06T04:58:48.028Z,1.83
2017-09-06T05:01:17.285Z,1.67
2017-09-06T05:03:46.544Z,1.70
2017-09-06T05:06:15.843Z,1.90
2017-09-06T05:08:45.109Z,1.50
2017-09-06T05:11:14.562Z,1.63
2017-09-06T05:13:43.844Z,1.47
2017-09-06T05:16:13.163Z,1.60
2017-09-06T05:18:42.439Z,1.40
2017-09-06T05:21:11.855Z,1.27
2017-09-06T05:23:41.192Z,1.53
2017-09-06T05:26:10.471Z,1.30
2017-09-06T05:28:39.714Z,1.50
2017-09-06T05:31:08.975Z,1.50
2017-09-06T05:33:38.365Z,1.33
2017-09-06T05:36:07.622Z,1.63
2017-09-06T05:38:36.961Z,1.40
2017-09-06T05:41:06.237Z,1.63
2017-09-06T05:43:35.650Z,1.67
2017-09-06T05:46:04.982Z,1.90
2017-09-06T05:48:34.386Z,1.20
2017-09-06T05:51:03.649Z,1.90
2017-09-06T05:53:32.910Z,1.60
2017-09-06T05:56:02.296Z,1.50
2017-09-06T05:58:31.556Z,1.37
2017-09-06T06:01:00.810Z,1.27
2017-09-06T06:03:30.074Z,1.40
2017-09-06T06:05:59.314Z,1.67
2017-09-06T06:08:28.602Z,1.73
2017-09-06T06:10:57.851Z,1.37
2017-09-06T06:13:27.250Z,1.60
2017-09-06T06:15:56.571Z,1.60
2017-09-06T06:18:26.006Z,1.57
2017-09-06T06:20:55.534Z,1.77
2017-09-06T06:23:25.009Z,1.10
2017-09-06T06:25:54.359Z,1.10
2017-09-06T06:28:23.609Z,1.40
2017-09-06T06:30:52.858Z,1.20
2017-09-06T06:33:22.126Z,1.07
2017-09-06T06:35:51.393Z,1.30
2017-09-06T06:38:20.642Z,1.40
2017-09-06T06:40:49.887Z,1.10
2017-09-06T06:43:19.159Z,1.00
2017-09-06T06:45:48.394Z,1.40
2017-09-06T06:48:17.705Z,1.30
2017-09-06T06:50:46.955Z,1.10
2017-09-06T06:53:16.235Z,1.17
2017-09-06T06:55:45.524Z,1.20
2017-09-06T06:58:14.753Z,1.20
2017-09-06T07:00:44.130Z,1.60
2017-09-06T07:03:13.453Z,1.20
2017-09-06T07:05:43.642Z,0.90
2017-09-06T07:08:12.897Z,1.47
2017-09-06T07:10:42.159Z,1.20
2017-09-06T07:13:11.422Z,1.40
2017-09-06T07:15:40.935Z,1.33
2017-09-06T07:18:10.173Z,1.13
2017-09-06T07:20:39.445Z,1.20
2017-09-06T07:23:08.682Z,1.30
2017-09-06T07:25:38.170Z,1.20
2017-09-06T07:28:07.585Z,1.23
2017-09-06T07:30:36.855Z,0.93
2017-09-06T07:33:06.091Z,0.80
2017-09-06T07:35:35.374Z,0.77
2017-09-06T07:38:05.341Z,0.90
2017-09-06T07:40:34.793Z,0.70
2017-09-06T07:43:04.061Z,1.07
2017-09-06T07:45:33.303Z,0.70
2017-09-06T07:48:02.710Z,0.80
2017-09-06T07:50:31.969Z,0.63
2017-09-06T07:53:01.230Z,0.87
2017-09-06T07:55:30.516Z,1.00
2017-09-06T07:57:59.716Z,0.87
2017-09-06T08:00:29.029Z,0.80
2017-09-06T08:02:58.281Z,0.90
2017-09-06T08:05:27.527Z,0.77
2017-09-06T08:08:02.198Z,1.17
2017-09-06T08:10:31.438Z,1.00
2017-09-06T08:13:00.736Z,1.00
2017-09-06T08:15:29.997Z,0.90
2017-09-06T08:17:59.238Z,0.80
2017-09-06T08:20:28.576Z,0.63
2017-09-06T08:22:58.069Z,0.90
2017-09-06T08:25:27.314Z,1.20
2017-09-06T08:27:56.574Z,1.00
2017-09-06T08:30:25.893Z,1.40
2017-09-06T08:32:55.288Z,0.80
2017-09-06T08:35:24.525Z,0.70
2017-09-06T08:37:53.801Z,0.70
2017-09-06T08:40:23.086Z,0.73
2017-09-06T08:42:52.517Z,0.80
2017-09-06T08:45:21.770Z,0.83
2017-09-06T08:47:51.800Z,0.70
2017-09-06T08:50:21.049Z,0.90
2017-09-06T08:52:50.301Z,1.00
2017-09-06T08:55:19.573Z,1.10
2017-09-06T08:57:48.823Z,0.93
2017-09-06T09:00:18.093Z,1.00
2017-09-06T09:02:47.518Z,0.70
2017-09-06T09:05:16.897Z,0.63
2017-09-06T09:07:46.402Z,0.60
2017-09-06T09:10:15.653Z,0.67
2017-09-06T09:12:44.933Z,0.70
2017-09-06T09:15:14.227Z,0.70
2017-09-06T09:17:44.322Z,0.50
2017-09-06T09:20:13.566Z,1.03
2017-09-06T09:22:42.957Z,0.60
2017-09-06T09:25:12.228Z,1.23
2017-09-06T09:27:41.444Z,0.80
2017-09-06T09:30:10.817Z,0.93
2017-09-06T09:32:40.145Z,0.70
2017-09-06T09:35:09.365Z,0.80
2017-09-06T09:37:38.609Z,1.20
2017-09-06T09:40:08.037Z,1.07
2017-09-06T09:42:37.294Z,0.87
2017-09-06T09:45:06.558Z,1.10
2017-09-06T09:47:36.042Z,0.93
2017-09-06T09:50:05.329Z,0.90
2017-09-06T09:52:34.585Z,0.73
2017-09-06T09:55:03.826Z,0.90
2017-09-06T09:57:33.093Z,0.80
2017-09-06T10:00:02.341Z,0.97
2017-09-06T10:02:31.605Z,1.13
2017-09-06T10:05:00.891Z,1.47
2017-09-06T10:07:30.335Z,1.13
2017-09-06T10:09:59.643Z,1.37
2017-09-06T10:12:28.874Z,1.80
2017-09-06T10:14:58.255Z,1.87
2017-09-06T10:17:27.562Z,1.37
2017-09-06T10:19:56.847Z,1.80
2017-09-06T10:22:26.104Z,1.37
2017-09-06T10:24:55.429Z,1.33
2017-09-06T10:27:24.774Z,1.20
2017-09-06T10:29:54.099Z,1.50
2017-09-06T10:32:23.563Z,1.80
2017-09-06T10:34:52.817Z,1.63
2017-09-06T10:37:22.127Z,1.40
2017-09-06T10:39:51.478Z,1.37
2017-09-06T10:42:21.008Z,1.30
2017-09-06T10:44:50.205Z,1.53
2017-09-06T10:47:19.475Z,1.47
2017-09-06T10:49:48.887Z,1.13
2017-09-06T10:52:18.154Z,1.30
2017-09-06T10:54:47.395Z,1.07
2017-09-06T10:57:16.818Z,1.13
2017-09-06T10:59:46.087Z,1.43
2017-09-06T11:02:15.430Z,1.30
2017-09-06T11:04:44.674Z,1.57
2017-09-06T11:07:14.274Z,1.10
2017-09-06T11:09:43.526Z,1.10
2017-09-06T11:12:12.810Z,1.20
2017-09-06T11:14:42.059Z,1.27
2017-09-06T11:17:11.311Z,1.10
2017-09-06T11:19:40.706Z,1.00
2017-09-06T11:22:09.950Z,1.17
2017-09-06T11:24:39.355Z,1.10
2017-09-06T11:27:08.637Z,1.00
2017-09-06T11:29:37.921Z,1.10
2017-09-06T11:32:07.212Z,1.30
2017-09-06T11:34:36.649Z,1.30
2017-09-06T11:37:05.882Z,1.53
2017-09-06T11:39:35.128Z,1.17
2017-09-06T11:42:04.554Z,1.30
2017-09-06T11:44:33.783Z,1.43
2017-09-06T11:47:03.163Z,1.70
2017-09-06T11:49:32.588Z,1.20
2017-09-06T11:52:02.165Z,1.23
2017-09-06T11:54:31.454Z,1.00
2017-09-06T11:57:00.719Z,1.60
2017-09-06T11:59:30.021Z,1.30
2017-09-06T12:01:59.277Z,1.60
2017-09-06T12:04:28.546Z,1.60
2017-09-06T12:06:57.801Z,1.40
2017-09-06T12:09:27.079Z,1.70
2017-09-06T12:11:56.360Z,1.57
2017-09-06T12:14:25.591Z,2.07
2017-09-06T12:16:55.538Z,1.57
2017-09-06T12:19:24.808Z,2.30
2017-09-06T12:21:54.057Z,1.30
2017-09-06T12:24:23.316Z,1.80
2017-09-06T12:26:52.608Z,1.70
2017-09-06T12:29:21.996Z,1.80
2017-09-06T12:31:51.296Z,2.30
2017-09-06T12:34:20.596Z,1.93
2017-09-06T12:36:50.618Z,2.27
2017-09-06T12:39:19.898Z,1.83
2017-09-06T12:41:49.318Z,2.57
2017-09-06T12:44:18.609Z,2.03
2017-09-06T12:46:48.082Z,2.73
2017-09-06T12:49:17.338Z,2.47
2017-09-06T12:51:46.727Z,1.90
2017-09-06T12:54:16.008Z,1.80
2017-09-06T12:56:45.246Z,2.50
2017-09-06T12:59:14.490Z,2.53
2017-09-06T13:01:43.760Z,1.90
2017-09-06T13:04:13.630Z,2.13
2017-09-06T13:06:42.910Z,1.83
2017-09-06T13:09:12.175Z,1.67
2017-09-06T13:11:41.660Z,2.37
2017-09-06T13:14:10.874Z,1.80
2017-09-06T13:16:40.140Z,2.30
2017-09-06T13:19:09.397Z,2.97
2017-09-06T13:21:38.676Z,2.10
2017-09-06T13:24:08.064Z,1.67
2017-09-06T13:26:37.339Z,1.40
2017-09-06T13:29:06.780Z,1.80
2017-09-06T13:31:36.017Z,1.50
2017-09-06T13:34:05.230Z,1.70
2017-09-06T13:36:34.541Z,1.67
2017-09-06T13:39:03.795Z,1.53
2017-09-06T13:41:33.061Z,1.30
2017-09-06T13:44:02.334Z,1.47
2017-09-06T13:46:31.579Z,1.70
2017-09-06T13:49:00.877Z,1.80
2017-09-06T13:51:30.138Z,1.90
2017-09-06T13:53:59.472Z,1.43
2017-09-06T13:56:28.889Z,1.67
2017-09-06T13:58:58.314Z,1.60
2017-09-06T14:01:27.565Z,1.47
2017-09-06T14:03:56.890Z,1.50
2017-09-06T14:06:26.094Z,1.60
2017-09-06T14:08:55.566Z,1.60
2017-09-06T14:11:24.826Z,1.10
2017-09-06T14:13:54.080Z,1.70
2017-09-06T14:16:23.318Z,1.30
2017-09-06T14:18:52.596Z,1.37
2017-09-06T14:21:21.857Z,1.30
2017-09-06T14:23:51.106Z,1.47
2017-09-06T14:26:20.402Z,1.30
2017-09-06T14:28:50.134Z,1.40
2017-09-06T14:31:19.363Z,1.60
2017-09-06T14:33:48.706Z,1.53
2017-09-06T14:36:17.966Z,1.50
2017-09-06T14:38:47.558Z,1.17
2017-09-06T14:41:16.825Z,1.40
2017-09-06T14:43:46.948Z,1.57
2017-09-06T14:46:16.205Z,1.33
2017-09-06T14:48:45.445Z,1.40
2017-09-06T14:51:14.949Z,1.47
2017-09-06T14:53:44.283Z,1.40
2017-09-06T14:56:14.599Z,1.50
2017-09-06T14:58:44.083Z,2.00
2017-09-06T15:01:13.338Z,1.43
2017-09-06T15:03:42.710Z,2.33
2017-09-06T15:06:11.972Z,1.50
2017-09-06T15:08:41.315Z,1.53
2017-09-06T15:11:10.631Z,1.20
2017-09-06T15:13:39.879Z,1.33
2017-09-06T15:16:09.163Z,2.00
2017-09-06T15:18:38.415Z,1.33
2017-09-06T15:21:07.673Z,1.80
2017-09-06T15:23:36.968Z,1.83
2017-09-06T15:26:06.398Z,1.70
2017-09-06T15:28:35.670Z,1.70
2017-09-06T15:31:05.260Z,1.07
2017-09-06T15:33:34.642Z,1.20
2017-09-06T15:36:04.275Z,1.77
2017-09-06T15:38:33.569Z,1.73
2017-09-06T15:41:02.812Z,1.30
2017-09-06T15:43:32.125Z,1.90
2017-09-06T15:46:01.472Z,1.20
2017-09-06T15:48:30.906Z,1.87
2017-09-06T15:51:00.154Z,1.63
2017-09-06T15:53:29.398Z,1.73
2017-09-06T15:55:58.731Z,2.00
2017-09-06T16:33:49.486Z,1.60
2017-09-06T16:36:19.457Z,1.70
2017-09-06T16:38:49.289Z,1.40
2017-09-06T16:41:20.879Z,1.50
2017-09-06T16:43:50.252Z,1.30
2017-09-06T16:46:19.489Z,1.97
2017-09-06T16:48:48.797Z,1.63
2017-09-06T16:51:18.075Z,1.87
2017-09-06T16:53:48.254Z,1.87
2017-09-06T16:56:17.491Z,1.80
2017-09-06T16:58:46.833Z,3.00
2017-09-06T17:01:16.162Z,3.00
2017-09-06T17:03:45.445Z,1.70
2017-09-06T17:06:15.355Z,2.10
2017-09-06T17:08:44.617Z,2.30
2017-09-06T17:11:13.914Z,2.03
2017-09-06T17:13:43.997Z,1.40
2017-09-06T17:16:13.489Z,2.30
2017-09-06T17:18:45.327Z,2.27
2017-09-06T17:21:15.101Z,2.00
2017-09-06T17:23:44.660Z,1.80
2017-09-06T17:26:14.008Z,1.50
2017-09-06T17:28:43.316Z,1.60
2017-09-06T17:31:12.616Z,2.00
2017-09-06T17:33:41.912Z,2.30
2017-09-06T17:36:11.143Z,1.60
2017-09-06T17:38:40.382Z,3.10
2017-09-06T17:41:09.691Z,2.00
2017-09-06T17:43:38.978Z,1.87
2017-09-06T17:46:08.484Z,2.00
2017-09-06T17:48:37.743Z,1.77
2017-09-06T17:51:07.175Z,1.80
2017-09-06T17:53:36.474Z,2.00
2017-09-06T17:56:05.773Z,1.57
2017-09-06T17:58:35.066Z,2.23
2017-09-06T18:01:05.164Z,1.90
2017-09-06T18:03:34.405Z,1.73
2017-09-06T18:06:03.723Z,1.90
2017-09-06T18:08:32.985Z,2.27
2017-09-06T18:11:02.242Z,1.90
2017-09-06T18:13:35.483Z,2.17
2017-09-06T18:16:04.776Z,2.17
2017-09-06T18:18:34.082Z,2.70
2017-09-06T18:21:03.412Z,1.80
2017-09-06T18:23:32.728Z,2.20
2017-09-06T18:26:02.008Z,1.90
2017-09-06T18:28:31.405Z,1.93
2017-09-06T18:31:00.659Z,2.40
2017-09-06T18:33:30.018Z,2.37
2017-09-06T18:35:59.282Z,2.03
2017-09-06T18:38:28.509Z,2.67
2017-09-06T18:40:57.865Z,2.23
2017-09-06T18:43:27.182Z,1.80
2017-09-06T18:45:56.502Z,1.93
2017-09-06T18:48:25.821Z,1.80
2017-09-06T18:50:55.096Z,2.10
2017-09-06T18:53:24.429Z,1.70
2017-09-06T18:55:53.810Z,2.70
2017-09-06T18:58:23.115Z,2.30
2017-09-06T19:00:52.382Z,2.40
2017-09-06T19:03:21.657Z,1.73
2017-09-06T19:05:50.946Z,3.67
2017-09-06T19:08:20.220Z,2.57
2017-09-06T19:10:49.481Z,1.90
2017-09-06T19:13:18.758Z,2.07
2017-09-06T19:15:48.226Z,2.20
2017-09-06T19:18:17.625Z,1.97
2017-09-06T19:20:47.087Z,2.20
2017-09-06T19:23:16.492Z,2.33
2017-09-06T19:25:45.044Z,1.87
2017-09-06T19:28:14.116Z,2.60
2017-09-06T19:30:43.546Z,2.00
2017-09-06T19:33:12.794Z,2.00
2017-09-06T19:35:42.317Z,3.17
2017-09-06T19:38:11.593Z,2.70
2017-09-06T19:40:40.826Z,2.57
2017-09-06T19:43:10.107Z,2.30
2017-09-06T19:45:39.450Z,2.00
2017-09-06T19:48:08.699Z,2.30
2017-09-06T19:50:37.980Z,2.23
2017-09-06T19:53:07.238Z,2.10
2017-09-06T19:55:36.587Z,2.00
2017-09-06T19:58:05.825Z,1.87
2017-09-06T20:00:35.142Z,1.80
2017-09-06T20:03:05.483Z,2.43
2017-09-06T20:05:34.733Z,1.90
2017-09-06T20:08:03.989Z,2.90
2017-09-06T20:10:33.279Z,2.00
2017-09-06T20:13:02.580Z,3.10
2017-09-06T20:15:31.860Z,2.90
2017-09-06T20:18:01.255Z,2.57
2017-09-06T20:20:30.578Z,2.80
2017-09-06T20:22:59.927Z,2.77
2017-09-06T20:25:29.910Z,2.67
2017-09-06T20:27:59.211Z,2.80
2017-09-06T20:30:28.472Z,2.37
2017-09-06T20:32:57.744Z,2.67
2017-09-06T20:35:27.077Z,2.30
2017-09-06T20:37:56.301Z,1.87
2017-09-06T20:40:25.706Z,3.17
2017-09-06T20:42:55.078Z,2.83
2017-09-06T20:45:24.322Z,2.70
2017-09-06T20:47:53.595Z,2.50
2017-09-06T20:50:22.911Z,2.77
2017-09-06T20:52:52.160Z,2.50
2017-09-06T20:55:21.437Z,2.73
2017-09-06T20:57:50.720Z,2.83
2017-09-06T21:00:19.966Z,2.13
2017-09-06T21:02:49.226Z,4.40
2017-09-06T21:05:18.513Z,2.83
2017-09-06T21:07:47.830Z,2.27
2017-09-06T21:10:17.128Z,2.13
2017-09-06T21:12:46.379Z,2.50
2017-09-06T21:15:15.659Z,2.60
2017-09-06T21:17:44.946Z,2.70
2017-09-06T21:20:14.202Z,2.07
2017-09-06T21:22:43.462Z,2.93
2017-09-06T21:25:12.807Z,3.53
2017-09-06T21:27:42.067Z,2.30
2017-09-06T21:30:11.303Z,2.50
2017-09-06T21:32:40.560Z,2.70
2017-09-06T21:35:09.883Z,2.47
2017-09-06T21:37:39.159Z,2.80
2017-09-06T21:40:08.417Z,3.60
2017-09-06T21:42:37.681Z,3.30
2017-09-06T21:45:06.945Z,2.57
2017-09-06T21:47:36.998Z,3.10
2017-09-06T21:50:06.249Z,3.43
2017-09-06T21:52:35.499Z,2.80
2017-09-06T21:55:04.759Z,2.30
2017-09-06T21:57:34.099Z,2.57
2017-09-06T22:00:03.569Z,3.40
2017-09-06T22:02:32.868Z,4.00
2017-09-06T22:05:02.131Z,2.27
2017-09-06T22:07:32.127Z,3.37
2017-09-06T22:10:02.116Z,3.17
2017-09-06T22:12:31.389Z,2.30
2017-09-06T22:15:00.623Z,2.30
2017-09-06T22:17:29.885Z,2.30
2017-09-06T22:19:59.123Z,3.03
2017-09-06T22:22:28.380Z,4.30
2017-09-06T22:24:57.735Z,3.20
2017-09-06T22:27:27.000Z,2.60
2017-09-06T22:29:56.412Z,2.83
2017-09-06T22:32:25.665Z,3.47
2017-09-06T22:34:55.219Z,3.07
2017-09-06T22:37:24.648Z,2.20
2017-09-06T22:39:54.031Z,2.30
2017-09-06T22:42:24.074Z,4.10
2017-09-06T22:44:53.448Z,3.67
2017-09-06T22:47:22.786Z,2.53
2017-09-06T22:49:52.027Z,4.53
2017-09-06T22:52:21.294Z,2.60
2017-09-06T22:54:50.578Z,3.33
2017-09-06T22:57:19.944Z,2.50
2017-09-06T22:59:49.183Z,3.77
2017-09-06T23:02:18.442Z,3.70
2017-09-06T23:04:47.724Z,3.70
2017-09-06T23:07:17.090Z,2.67
2017-09-06T23:09:46.340Z,3.17
2017-09-06T23:12:15.606Z,3.53
2017-09-06T23:14:44.854Z,3.40
2017-09-06T23:17:14.118Z,2.93
2017-09-06T23:19:43.466Z,2.83
2017-09-06T23:22:12.705Z,3.07
2017-09-06T23:24:42.086Z,3.30
2017-09-06T23:27:11.330Z,3.40
2017-09-06T23:29:40.598Z,3.87
2017-09-06T23:32:09.846Z,2.90
2017-09-06T23:34:39.285Z,3.30
2017-09-06T23:37:08.574Z,3.00
2017-09-06T23:39:37.834Z,3.50
2017-09-06T23:42:07.097Z,3.37
2017-09-06T23:44:36.479Z,3.30
2017-09-06T23:47:05.794Z,3.27
2017-09-06T23:49:35.050Z,3.67
2017-09-06T23:52:04.323Z,3.30
2017-09-06T23:54:33.626Z,3.50
2017-09-06T23:57:02.877Z,3.73
2017-09-06T23:59:32.386Z,3.10
